Stations météo

réclame
Mon MeteoGroup
Glen Ogle, Grande-Bretagne (3148): Température de l'air & dewpoint: 18.02.2018 21:00:00 - 24.02.2018 21:00:00 (GMT)Glen Ogle, Grande-Bretagne (3148): Vitesse du vent & gusts: 18.02.2018 21:00:00 - 24.02.2018 21:00:00 (GMT)Glen Ogle, Grande-Bretagne (3148): Direction du vent: 18.02.2018 21:00:00 - 24.02.2018 21:00:00 (GMT)
Date & Time tt [°C] td [°C] ff [km/h] ff [knt] fx [km/h] fx [knt] dd
24.02.2018 21:00:00 -1,9 -3,2 34 18 - - ESE
24.02.2018 20:00:00 -1,1 -3,1 34 18 - - ESE
24.02.2018 19:00:00 -1,0 -2,8 31 17 50 27 ESE
24.02.2018 18:00:00 -0,6 -3,6 34 18 46 25 ESE
24.02.2018 17:00:00 0,3 -6,9 26 14 - - SE
24.02.2018 16:00:00 0,6 -6,8 24 13 - - SE
24.02.2018 15:00:00 0,6 -7,0 28 15 - - SSE
24.02.2018 14:00:00 0,0 -6,8 28 15 - - SE
24.02.2018 13:00:00 -1,3 -5,5 34 18 - - SE
24.02.2018 12:00:00 -2,0 -4,1 29 16 - - SE
24.02.2018 11:00:00 -2,9 -4,1 26 14 - - SE
24.02.2018 10:00:00 -3,5 -4,4 28 15 - - SE
24.02.2018 09:00:00 -4,2 -4,4 26 14 - - SE
24.02.2018 08:00:00 -4,3 -4,6 34 18 50 27 ESE
24.02.2018 07:00:00 -4,5 -4,8 44 24 52 28 ESE
24.02.2018 06:00:00 -4,4 -4,9 37 20 48 26 ESE
24.02.2018 05:00:00 -4,2 -4,9 37 20 46 25 ESE
24.02.2018 04:00:00 -4,0 -5,2 37 20 46 25 SE
24.02.2018 03:00:00 -3,8 -4,9 39 21 50 27 SE
24.02.2018 02:00:00 -3,1 -4,2 31 17 46 25 ESE
24.02.2018 01:00:00 -2,8 -4,0 28 15 - - SE
24.02.2018 00:00:00 -2,7 -3,8 26 14 - - SE
23.02.2018 23:00:00 -2,4 -3,4 31 17 - - SE
23.02.2018 22:00:00 -2,3 -3,2 35 19 - - SE
23.02.2018 21:00:00 -1,7 -3,3 35 19 46 25 SE
23.02.2018 20:00:00 -1,0 -3,2 35 19 48 26 SSE
23.02.2018 19:00:00 -0,9 -3,4 35 19 52 28 SSE
23.02.2018 18:00:00 -0,7 -3,4 37 20 46 25 SSE
23.02.2018 17:00:00 -0,4 -4,2 31 17 46 25 SSE
23.02.2018 16:00:00 0,1 -4,8 26 14 54 29 SSE
23.02.2018 15:00:00 0,2 -6,1 39 21 54 29 SSE
23.02.2018 14:00:00 -0,8 -5,9 29 16 48 26 SSE
23.02.2018 13:00:00 -1,3 -5,3 35 19 46 25 SSE
23.02.2018 12:00:00 -1,6 -5,3 29 16 - - SSE
23.02.2018 11:00:00 -2,2 -4,1 31 17 - - SSE
23.02.2018 10:00:00 -2,6 -3,9 31 17 - - S
23.02.2018 09:00:00 -2,8 -3,6 18 10 - - SSE
23.02.2018 08:00:00 -3,1 -3,5 21 11 - - SSE
23.02.2018 07:00:00 -3,2 -3,5 18 10 - - SSE
23.02.2018 06:00:00 -3,2 -3,7 16 9 - - SE
23.02.2018 05:00:00 -3,0 -3,8 18 10 - - SE
23.02.2018 04:00:00 -2,8 -3,6 13 7 - - SSE
23.02.2018 03:00:00 -2,6 -3,4 16 9 - - SSE
23.02.2018 02:00:00 -2,6 -3,5 9 5 - - S
23.02.2018 01:00:00 -2,4 -3,4 15 8 - - SSE
23.02.2018 00:00:00 -2,1 -3,3 18 10 - - SSE
22.02.2018 23:00:00 -1,8 -3,4 16 9 - - SSE
22.02.2018 22:00:00 -1,5 -3,1 15 8 - - S
22.02.2018 21:00:00 -1,3 -3,0 24 13 - - S
22.02.2018 20:00:00 -1,1 -2,6 28 15 - - S
22.02.2018 19:00:00 -0,5 -1,8 28 15 46 25 S
22.02.2018 18:00:00 0,2 -1,6 31 17 48 26 S
22.02.2018 17:00:00 0,7 -0,9 26 14 - - S
22.02.2018 16:00:00 0,7 -1,4 22 12 - - S
22.02.2018 15:00:00 0,7 -1,9 34 18 46 25 S
22.02.2018 14:00:00 0,3 -1,6 29 16 48 26 S
22.02.2018 13:00:00 -0,4 -1,4 31 17 - - S
22.02.2018 12:00:00 -1,0 -1,4 24 13 - - S
22.02.2018 11:00:00 -1,4 -1,6 21 11 - - S
22.02.2018 10:00:00 -1,4 -1,8 21 11 - - SSE
22.02.2018 09:00:00 -1,4 -1,6 22 12 - - SE
22.02.2018 08:00:00 -0,9 -1,2 21 11 - - SSE
22.02.2018 07:00:00 -0,9 -0,9 13 7 - - SSE
22.02.2018 06:00:00 -0,7 -0,8 15 8 - - SSE
22.02.2018 05:00:00 -0,7 -0,7 15 8 - - SSE
22.02.2018 04:00:00 -0,4 -0,7 16 9 - - SSE
22.02.2018 03:00:00 -0,1 -0,5 22 12 - - SSE
22.02.2018 02:00:00 -0,1 -0,5 15 8 - - SSE
22.02.2018 01:00:00 -0,1 -1,0 15 8 - - SE
22.02.2018 00:00:00 0,4 -1,4 16 9 - - SE
21.02.2018 23:00:00 0,7 -0,8 16 9 - - SE
21.02.2018 22:00:00 0,6 -0,6 18 10 - - SE
21.02.2018 21:00:00 0,9 -0,6 21 11 - - ESE
21.02.2018 20:00:00 0,8 -0,5 22 12 - - SSE
21.02.2018 19:00:00 1,1 -0,4 18 10 - - SSE
21.02.2018 18:00:00 1,2 -0,4 11 6 - - SSE
21.02.2018 17:00:00 2,1 -3,1 11 6 - - S
21.02.2018 16:00:00 2,8 -4,1 13 7 - - SSW
21.02.2018 15:00:00 3,1 -4,4 15 8 - - SSW
21.02.2018 14:00:00 2,4 -5,1 16 9 - - S
21.02.2018 13:00:00 2,0 -5,3 15 8 - - SSE
21.02.2018 12:00:00 1,5 -5,2 15 8 - - SSE
21.02.2018 11:00:00 1,5 -5,8 9 5 - - S
21.02.2018 10:00:00 1,6 -6,7 5 3 - - S
21.02.2018 09:00:00 0,2 -5,4 5 3 - - ESE
21.02.2018 08:00:00 0,6 -2,4 8 4 - - ESE
21.02.2018 07:00:00 0,4 -2,6 5 3 - - ESE
21.02.2018 06:00:00 1,0 -1,7 13 7 - - ENE
21.02.2018 05:00:00 0,7 -2,1 11 6 - - ENE
21.02.2018 04:00:00 0,7 -1,9 5 3 - - NNE
21.02.2018 03:00:00 0,9 -1,7 5 3 - - NNE
21.02.2018 02:00:00 0,6 -1,9 8 4 - - N
21.02.2018 01:00:00 0,7 -1,6 9 5 - - N
21.02.2018 00:00:00 0,9 -0,9 8 4 - - N
20.02.2018 23:00:00 1,1 -0,9 8 4 - - N
20.02.2018 22:00:00 1,2 -1,1 9 5 - - N
20.02.2018 21:00:00 1,2 -0,5 4 2 - - N
20.02.2018 20:00:00 1,9 -0,3 11 6 - - N
20.02.2018 19:00:00 2,1 0,4 4 2 - - NE
20.02.2018 18:00:00 2,3 -0,5 16 9 - - NNW
20.02.2018 17:00:00 2,8 -1,4 28 15 - - N
20.02.2018 16:00:00 3,6 -3,9 22 12 55 30 NNW
20.02.2018 15:00:00 3,6 -3,1 34 18 54 29 NW
20.02.2018 14:00:00 3,7 -2,7 34 18 50 27 NW
20.02.2018 13:00:00 3,2 -2,7 21 11 - - NW
20.02.2018 12:00:00 3,1 -4,6 15 8 - - NNW
20.02.2018 11:00:00 2,1 -1,1 15 8 - - N
20.02.2018 10:00:00 2,1 -2,5 29 16 - - NW
20.02.2018 09:00:00 1,9 -1,8 34 18 - - NNW
20.02.2018 08:00:00 1,9 0,4 13 7 - - NW
20.02.2018 07:00:00 1,5 0,5 22 12 - - NW
20.02.2018 06:00:00 1,5 0,0 16 9 - - WNW
20.02.2018 05:00:00 1,6 1,1 21 11 - - WNW
20.02.2018 04:00:00 1,5 1,4 21 11 - - WNW
20.02.2018 03:00:00 1,6 1,6 28 15 - - W
20.02.2018 02:00:00 1,8 1,3 24 13 - - WNW
20.02.2018 01:00:00 2,1 0,9 31 17 50 27 WNW
20.02.2018 00:00:00 2,9 2,9 37 20 48 26 WNW
19.02.2018 23:00:00 3,5 3,5 31 17 - - WNW
19.02.2018 22:00:00 4,4 4,4 29 16 - - W
19.02.2018 21:00:00 5,0 5,0 21 11 - - W
19.02.2018 20:00:00 4,8 4,8 11 6 - - W
19.02.2018 19:00:00 4,8 4,8 9 5 - - W
19.02.2018 18:00:00 5,0 5,0 15 8 - - W
19.02.2018 17:00:00 5,6 5,5 13 7 - - W
19.02.2018 16:00:00 5,7 5,3 22 12 - - W
19.02.2018 15:00:00 6,4 2,9 18 10 - - WNW
19.02.2018 14:00:00 6,2 4,3 26 14 - - WNW
19.02.2018 13:00:00 6,1 5,6 28 15 - - W
19.02.2018 12:00:00 6,1 5,1 28 15 - - W
19.02.2018 11:00:00 5,7 5,7 22 12 - - W
19.02.2018 10:00:00 5,5 5,5 29 16 - - WNW
19.02.2018 09:00:00 5,4 5,4 24 13 - - WNW
19.02.2018 08:00:00 5,1 5,1 18 10 - - W
19.02.2018 07:00:00 5,1 5,1 22 12 - - W
19.02.2018 06:00:00 5,1 5,1 26 14 - - W
19.02.2018 05:00:00 4,5 4,5 18 10 - - W
19.02.2018 04:00:00 4,4 4,4 24 13 - - W
19.02.2018 03:00:00 3,8 3,8 18 10 - - W
19.02.2018 02:00:00 3,0 3,0 9 5 - - WNW
19.02.2018 01:00:00 2,7 2,7 4 2 - - W
19.02.2018 00:00:00 2,7 2,7 5 3 - - WSW
18.02.2018 23:00:00 2,4 2,4 11 6 - - S
18.02.2018 22:00:00 2,0 2,0 11 6 - - SSE
18.02.2018 21:00:00 2,0 2,0 15 8 - - SSE

tt = Température de l'air
td = dewpoint
ff = Vitesse du vent
fx = gusts
dd = Direction du vent

stations d'obs. à proximité